createdAt,value
2022-10-22T00:01:38.997Z,82.43
2022-10-22T00:04:41.837Z,82.76
2022-10-22T00:07:44.122Z,83.58
2022-10-22T00:10:46.592Z,84.58
2022-10-22T00:13:50.129Z,83.92
2022-10-22T00:16:52.641Z,84.29
2022-10-22T00:19:54.855Z,84.24
2022-10-22T00:22:57.437Z,84.72
2022-10-22T00:26:00.025Z,85.82
2022-10-22T00:29:02.719Z,86.46
2022-10-22T00:32:05.441Z,87.43
2022-10-22T00:35:07.963Z,87.75
2022-10-22T00:38:10.106Z,87.86
2022-10-22T00:41:13.016Z,88.22
2022-10-22T00:44:34.046Z,87.69
2022-10-22T00:47:39.315Z,87.31
2022-10-22T00:50:43.724Z,86.87
2022-10-22T00:53:48.979Z,87.15
2022-10-22T00:56:51.581Z,87.34
2022-10-22T00:59:54.264Z,87.10
2022-10-22T01:02:57.337Z,87.42
2022-10-22T01:06:01.468Z,87.39
2022-10-22T01:09:18.897Z,86.47
2022-10-22T01:12:21.499Z,86.83
2022-10-22T01:15:26.602Z,86.55
2022-10-22T01:18:29.177Z,86.30
2022-10-22T01:21:34.740Z,86.76
2022-10-22T01:24:37.336Z,87.00
2022-10-22T01:27:44.160Z,87.50
2022-10-22T01:30:48.762Z,87.86
2022-10-22T01:33:53.224Z,87.63
2022-10-22T01:36:55.997Z,87.48
2022-10-22T01:40:00.826Z,87.56
2022-10-22T01:43:05.175Z,89.18
2022-10-22T01:46:09.873Z,88.81
2022-10-22T01:49:18.803Z,86.91
2022-10-22T01:52:30.293Z,88.05
2022-10-22T01:55:32.811Z,89.20
2022-10-22T01:58:41.014Z,90.58
2022-10-22T02:02:13.754Z,90.69
2022-10-22T02:05:16.241Z,91.92
2022-10-22T02:08:20.385Z,92.58
2022-10-22T02:11:22.924Z,93.90
2022-10-22T02:14:26.319Z,93.87
2022-10-22T02:17:31.663Z,94.04
2022-10-22T02:20:35.352Z,94.49
2022-10-22T02:23:38.401Z,94.86
2022-10-22T02:26:45.020Z,95.19
2022-10-22T02:29:53.391Z,95.92
2022-10-22T02:32:57.976Z,96.18
2022-10-22T02:36:01.853Z,96.49
2022-10-22T02:39:04.992Z,97.76
2022-10-22T02:42:08.750Z,98.40
2022-10-22T02:45:11.076Z,99.12
2022-10-22T02:48:13.635Z,99.60
2022-10-22T02:51:16.015Z,99.98
2022-10-22T02:54:18.514Z,100.00
2022-10-22T03:00:28.224Z,100.00
2022-10-22T03:03:30.527Z,100.00
2022-10-22T03:06:33.152Z,100.00
2022-10-22T03:09:35.525Z,100.00
2022-10-22T03:12:38.080Z,100.00
2022-10-22T03:15:40.287Z,100.00
2022-10-22T03:18:43.107Z,100.00
2022-10-22T03:22:00.414Z,100.00
2022-10-22T03:25:07.959Z,100.00
2022-10-22T03:28:11.935Z,100.00
2022-10-22T03:31:14.947Z,100.00
2022-10-22T03:34:17.128Z,100.00
2022-10-22T03:37:20.017Z,100.00
2022-10-22T03:40:22.821Z,100.00
2022-10-22T03:43:25.344Z,100.00
2022-10-22T03:46:27.627Z,100.00
2022-10-22T03:49:30.319Z,100.00
2022-10-22T03:52:36.996Z,100.00
2022-10-22T03:55:41.121Z,100.00
2022-10-22T03:58:43.442Z,100.00
2022-10-22T04:01:45.980Z,100.00
2022-10-22T04:04:48.522Z,100.00
2022-10-22T04:07:50.743Z,100.00
2022-10-22T04:10:53.369Z,100.00
2022-10-22T04:13:55.514Z,100.00
2022-10-22T04:16:57.981Z,100.00
2022-10-22T04:20:00.301Z,100.00
2022-10-22T04:23:02.861Z,100.00
2022-10-22T04:26:06.351Z,100.00
2022-10-22T04:29:11.982Z,100.00
2022-10-22T04:32:17.449Z,100.00
2022-10-22T04:35:20.075Z,100.00
2022-10-22T04:38:22.473Z,100.00
2022-10-22T04:41:26.478Z,100.00
2022-10-22T04:44:28.765Z,100.00
2022-10-22T04:47:31.318Z,100.00
2022-10-22T04:50:33.644Z,100.00
2022-10-22T04:53:40.489Z,100.00
2022-10-22T04:56:42.768Z,100.00
2022-10-22T04:59:45.263Z,100.00
2022-10-22T05:02:51.108Z,100.00
2022-10-22T05:05:53.718Z,100.00
2022-10-22T05:08:57.366Z,100.00
2022-10-22T05:11:59.910Z,100.00
2022-10-22T05:15:02.176Z,100.00
2022-10-22T05:18:04.866Z,100.00
2022-10-22T05:21:15.042Z,100.00
2022-10-22T05:24:17.518Z,100.00
2022-10-22T05:30:22.275Z,100.00
2022-10-22T05:33:24.951Z,100.00
2022-10-22T05:36:27.756Z,100.00
2022-10-22T05:39:29.967Z,100.00
2022-10-22T05:42:33.002Z,100.00
2022-10-22T05:45:39.092Z,100.00
2022-10-22T05:48:41.795Z,100.00
2022-10-22T05:51:44.112Z,100.00
2022-10-22T05:54:46.676Z,100.00
2022-10-22T05:57:50.187Z,100.00
2022-10-22T06:00:52.637Z,100.00
2022-10-22T06:03:56.466Z,100.00
2022-10-22T06:06:58.745Z,100.00
2022-10-22T06:10:01.924Z,100.00
2022-10-22T06:13:08.061Z,100.00
2022-10-22T06:16:10.820Z,100.00
2022-10-22T06:19:13.995Z,100.00
2022-10-22T06:22:16.837Z,100.00
2022-10-22T06:25:19.160Z,100.00
2022-10-22T06:28:21.736Z,100.00
2022-10-22T06:31:25.177Z,100.00
2022-10-22T06:34:29.816Z,100.00
2022-10-22T06:37:32.105Z,100.00
2022-10-22T06:40:35.122Z,100.00
2022-10-22T06:43:37.318Z,100.00
2022-10-22T06:46:42.613Z,99.56
2022-10-22T06:49:45.748Z,94.80
2022-10-22T06:52:48.374Z,92.14
2022-10-22T06:55:50.591Z,90.10
2022-10-22T06:58:54.157Z,88.86
2022-10-22T07:01:56.350Z,86.31
2022-10-22T07:04:58.793Z,81.51
2022-10-22T07:08:01.075Z,80.16
2022-10-22T07:11:11.159Z,79.12
2022-10-22T07:14:14.183Z,80.72
2022-10-22T07:17:16.706Z,79.75
2022-10-22T07:20:20.915Z,78.37
2022-10-22T07:23:23.675Z,79.08
2022-10-22T07:26:28.205Z,79.17
2022-10-22T07:29:31.038Z,80.17
2022-10-22T07:32:33.438Z,79.95
2022-10-22T07:35:36.728Z,80.79
2022-10-22T07:38:38.984Z,78.95
2022-10-22T07:41:41.956Z,77.27
2022-10-22T07:44:44.155Z,76.74
2022-10-22T07:47:47.599Z,76.49
2022-10-22T07:50:50.850Z,73.10
2022-10-22T07:53:53.436Z,72.74
2022-10-22T07:56:55.714Z,71.56
2022-10-22T07:59:58.533Z,73.31
2022-10-22T08:03:00.853Z,70.63
2022-10-22T08:06:03.582Z,72.11
2022-10-22T08:09:06.303Z,69.19
2022-10-22T08:12:08.960Z,67.60
2022-10-22T08:15:11.182Z,66.46
2022-10-22T08:18:14.121Z,66.43
2022-10-22T08:21:17.428Z,66.91
2022-10-22T08:24:19.976Z,66.57
2022-10-22T08:27:22.151Z,66.55
2022-10-22T08:30:27.040Z,64.47
2022-10-22T08:33:29.320Z,62.04
2022-10-22T08:36:31.877Z,59.48
2022-10-22T08:39:34.388Z,59.49
2022-10-22T08:42:48.918Z,59.44
2022-10-22T08:46:17.687Z,59.51
2022-10-22T08:49:21.276Z,58.66
2022-10-22T08:52:23.620Z,58.06
2022-10-22T08:55:26.387Z,57.73
2022-10-22T08:58:47.388Z,58.04
2022-10-22T09:01:52.264Z,57.33
2022-10-22T09:05:00.226Z,57.73
2022-10-22T09:08:02.852Z,59.82
2022-10-22T09:11:11.402Z,59.18
2022-10-22T09:14:18.196Z,59.36
2022-10-22T09:17:35.433Z,58.86
2022-10-22T09:20:37.970Z,58.80
2022-10-22T09:23:56.104Z,59.32
2022-10-22T09:26:58.698Z,60.35
2022-10-22T09:30:01.784Z,59.99
2022-10-22T09:33:12.559Z,59.10
2022-10-22T09:36:21.210Z,60.26
2022-10-22T09:39:28.833Z,61.60
2022-10-22T09:42:35.313Z,60.96
2022-10-22T09:45:37.883Z,62.03
2022-10-22T09:48:42.187Z,61.80
2022-10-22T09:51:51.934Z,63.15
2022-10-22T09:54:54.260Z,62.95
2022-10-22T09:57:58.706Z,61.21
2022-10-22T10:01:00.977Z,60.52
2022-10-22T10:04:09.303Z,60.10
2022-10-22T10:07:16.624Z,60.54
2022-10-22T10:10:36.618Z,60.08
2022-10-22T10:13:41.899Z,59.02
2022-10-22T10:16:54.451Z,60.53
2022-10-22T10:20:01.398Z,59.16
2022-10-22T10:23:12.379Z,57.77
2022-10-22T10:26:14.650Z,57.80
2022-10-22T10:29:23.046Z,59.03
2022-10-22T10:32:44.522Z,58.56
2022-10-22T10:36:06.778Z,58.12
2022-10-22T10:39:12.139Z,57.74
2022-10-22T10:42:14.631Z,56.97
2022-10-22T10:45:20.699Z,56.81
2022-10-22T10:48:35.986Z,57.24
2022-10-22T10:51:54.255Z,56.25
2022-10-22T10:55:15.113Z,55.72
2022-10-22T10:58:26.275Z,56.46
2022-10-22T11:01:46.990Z,57.00
2022-10-22T11:05:11.978Z,56.62
2022-10-22T11:08:14.689Z,57.57
2022-10-22T11:11:19.632Z,56.52
2022-10-22T11:14:30.008Z,56.47
2022-10-22T11:17:37.065Z,55.43
2022-10-22T11:20:42.742Z,58.54
2022-10-22T11:23:49.230Z,57.57
2022-10-22T11:26:55.591Z,57.26
2022-10-22T11:30:02.042Z,56.98
2022-10-22T11:33:11.744Z,58.14
2022-10-22T11:36:14.266Z,57.57
2022-10-22T11:39:35.330Z,58.37
2022-10-22T11:42:39.962Z,58.90
2022-10-22T11:45:43.056Z,61.56
2022-10-22T11:49:00.476Z,61.18
2022-10-22T11:52:23.277Z,60.07
2022-10-22T11:55:30.914Z,59.48
2022-10-22T11:58:44.728Z,58.25
2022-10-22T12:01:48.044Z,58.78
2022-10-22T12:04:50.707Z,58.15
2022-10-22T12:08:16.302Z,59.94
2022-10-22T12:11:38.903Z,58.70
2022-10-22T12:14:51.908Z,60.75
2022-10-22T12:18:01.245Z,58.44
2022-10-22T12:21:03.720Z,58.58
2022-10-22T12:24:07.149Z,58.85
2022-10-22T12:27:22.589Z,59.10
2022-10-22T12:30:30.497Z,59.57
2022-10-22T12:33:32.872Z,60.88
2022-10-22T12:36:36.283Z,60.05
2022-10-22T12:39:38.822Z,62.16
2022-10-22T12:42:46.755Z,62.29
2022-10-22T12:45:49.902Z,62.64
2022-10-22T12:48:52.799Z,64.22
2022-10-22T12:51:55.116Z,63.98
2022-10-22T12:54:57.703Z,64.88
2022-10-22T12:57:59.992Z,64.99
2022-10-22T13:01:02.946Z,65.93
2022-10-22T13:04:20.455Z,68.04
2022-10-22T13:07:22.960Z,68.08
2022-10-22T13:10:25.227Z,66.87
2022-10-22T13:13:54.130Z,67.67
2022-10-22T13:17:10.608Z,69.11
2022-10-22T13:20:23.324Z,69.95
2022-10-22T13:23:26.665Z,70.61
2022-10-22T13:26:37.275Z,69.79
2022-10-22T13:29:41.524Z,70.66
2022-10-22T13:32:49.465Z,70.79
2022-10-22T13:35:52.085Z,69.81
2022-10-22T13:38:54.585Z,70.62
2022-10-22T13:41:57.133Z,70.72
2022-10-22T13:44:59.630Z,69.97
2022-10-22T13:48:02.080Z,70.69
2022-10-22T13:51:07.674Z,71.02
2022-10-22T13:54:15.210Z,71.87
2022-10-22T13:57:17.724Z,72.98
2022-10-22T14:00:23.459Z,74.60
2022-10-22T14:03:28.475Z,73.75
2022-10-22T14:06:31.750Z,72.23
2022-10-22T14:09:34.468Z,73.34
2022-10-22T14:12:36.744Z,72.11
2022-10-22T14:15:39.740Z,71.23
2022-10-22T14:18:42.125Z,71.06
2022-10-22T14:21:44.729Z,70.91
2022-10-22T14:24:47.237Z,71.91
2022-10-22T14:27:49.779Z,71.40
2022-10-22T14:30:52.459Z,72.41
2022-10-22T14:33:55.162Z,75.14
2022-10-22T14:36:57.567Z,74.55
2022-10-22T14:40:01.780Z,75.69
2022-10-22T14:43:05.447Z,75.65
2022-10-22T14:46:08.818Z,76.72
2022-10-22T14:49:11.157Z,77.08
2022-10-22T14:52:14.943Z,77.31
2022-10-22T14:55:18.901Z,76.72
2022-10-22T14:58:21.403Z,77.58
2022-10-22T15:01:23.751Z,78.31
2022-10-22T15:04:27.262Z,79.77
2022-10-22T15:07:29.483Z,80.92
2022-10-22T15:10:32.014Z,81.57
2022-10-22T15:13:35.068Z,82.75
2022-10-22T15:16:37.654Z,83.37
2022-10-22T15:19:40.325Z,84.24
2022-10-22T15:22:43.546Z,85.70
2022-10-22T15:25:45.904Z,86.82
2022-10-22T15:28:48.591Z,88.14
2022-10-22T15:31:52.857Z,89.39
2022-10-22T15:34:56.050Z,90.74
2022-10-22T15:37:58.504Z,91.58
2022-10-22T15:41:04.570Z,93.21
2022-10-22T15:44:08.708Z,94.67
2022-10-22T15:47:11.399Z,94.96
2022-10-22T15:50:14.071Z,95.81
2022-10-22T15:53:16.796Z,97.26
2022-10-22T15:56:19.393Z,100.00
2022-10-22T15:59:22.799Z,100.00
2022-10-22T16:02:25.179Z,100.00
2022-10-22T16:05:27.907Z,100.00
2022-10-22T16:08:30.401Z,100.00
2022-10-22T16:11:33.464Z,100.00
2022-10-22T16:14:35.829Z,100.00
2022-10-22T16:17:38.417Z,100.00
2022-10-22T16:20:41.149Z,100.00
2022-10-22T16:23:44.255Z,100.00
2022-10-22T16:26:47.257Z,100.00
2022-10-22T16:29:50.435Z,100.00
2022-10-22T16:32:52.990Z,100.00
2022-10-22T16:35:55.828Z,100.00
2022-10-22T16:38:59.394Z,100.00
2022-10-22T16:42:02.098Z,100.00
2022-10-22T16:45:05.971Z,100.00
2022-10-22T16:48:09.140Z,100.00
2022-10-22T16:51:13.265Z,100.00
2022-10-22T16:54:16.042Z,100.00
2022-10-22T16:57:21.539Z,100.00
2022-10-22T17:00:25.355Z,100.00
2022-10-22T17:03:28.455Z,100.00
2022-10-22T17:06:31.750Z,100.00
2022-10-22T17:09:34.626Z,100.00
2022-10-22T17:12:37.371Z,100.00
2022-10-22T17:15:40.581Z,100.00
2022-10-22T17:21:50.133Z,100.00
2022-10-22T17:25:06.800Z,100.00
2022-10-22T17:28:10.014Z,100.00
2022-10-22T17:31:19.003Z,100.00
2022-10-22T17:34:22.512Z,100.00
2022-10-22T17:37:25.787Z,100.00
2022-10-22T17:40:28.388Z,100.00
2022-10-22T17:43:31.220Z,100.00
2022-10-22T17:46:34.016Z,100.00
2022-10-22T17:49:36.904Z,100.00
2022-10-22T17:52:39.712Z,100.00
2022-10-22T17:55:42.569Z,100.00
2022-10-22T17:58:45.638Z,100.00
2022-10-22T18:01:49.867Z,100.00
2022-10-22T18:04:53.175Z,100.00
2022-10-22T18:07:56.129Z,100.00
2022-10-22T18:11:00.292Z,100.00
2022-10-22T18:14:02.745Z,100.00
2022-10-22T18:17:05.849Z,100.00
2022-10-22T18:20:08.783Z,100.00
2022-10-22T18:23:13.515Z,100.00
2022-10-22T18:26:18.453Z,100.00
2022-10-22T18:29:24.274Z,100.00
2022-10-22T18:32:26.934Z,100.00
2022-10-22T18:35:31.806Z,100.00
2022-10-22T18:38:34.591Z,100.00
2022-10-22T18:41:38.454Z,100.00
2022-10-22T18:44:42.154Z,100.00
2022-10-22T18:47:44.909Z,100.00
2022-10-22T18:50:47.432Z,100.00
2022-10-22T18:53:59.239Z,100.00
2022-10-22T18:57:13.994Z,100.00
2022-10-22T19:00:16.884Z,100.00
2022-10-22T19:03:20.570Z,100.00
2022-10-22T19:06:34.407Z,100.00
2022-10-22T19:09:39.880Z,100.00
2022-10-22T19:12:42.673Z,100.00
2022-10-22T19:15:46.250Z,100.00
2022-10-22T19:18:52.907Z,100.00
2022-10-22T19:21:56.631Z,100.00
2022-10-22T19:24:59.768Z,100.00
2022-10-22T19:28:03.347Z,100.00
2022-10-22T19:31:07.182Z,100.00
2022-10-22T19:34:09.958Z,100.00
2022-10-22T19:37:13.355Z,100.00
2022-10-22T19:40:16.116Z,100.00
2022-10-22T19:43:19.124Z,100.00
2022-10-22T19:46:24.066Z,100.00
2022-10-22T19:49:26.893Z,100.00
2022-10-22T19:52:29.615Z,100.00
2022-10-22T19:55:32.792Z,100.00
2022-10-22T19:58:36.086Z,100.00
2022-10-22T20:01:39.324Z,100.00
2022-10-22T20:04:43.300Z,100.00
2022-10-22T20:07:48.743Z,100.00
2022-10-22T20:10:53.103Z,100.00
2022-10-22T20:13:56.828Z,100.00
2022-10-22T20:16:59.750Z,100.00
2022-10-22T20:20:02.431Z,100.00
2022-10-22T20:23:05.161Z,100.00
2022-10-22T20:26:07.751Z,100.00
2022-10-22T20:29:11.571Z,100.00
2022-10-22T20:32:14.299Z,100.00
2022-10-22T20:35:17.035Z,100.00
2022-10-22T20:38:19.475Z,100.00
2022-10-22T20:41:22.872Z,100.00
2022-10-22T20:44:25.338Z,100.00
2022-10-22T20:47:39.154Z,100.00
2022-10-22T20:50:50.721Z,100.00
2022-10-22T20:53:53.478Z,100.00
2022-10-22T20:56:56.862Z,100.00
2022-10-22T21:00:00.074Z,100.00
2022-10-22T21:03:02.265Z,100.00
2022-10-22T21:06:05.487Z,100.00
2022-10-22T21:09:08.627Z,100.00
2022-10-22T21:12:11.320Z,100.00
2022-10-22T21:15:13.572Z,100.00
2022-10-22T21:18:16.062Z,100.00
2022-10-22T21:21:19.103Z,100.00
2022-10-22T21:24:24.725Z,100.00
2022-10-22T21:27:26.936Z,100.00
2022-10-22T21:30:29.672Z,100.00
2022-10-22T21:33:32.135Z,100.00
2022-10-22T21:36:34.982Z,100.00
2022-10-22T21:39:41.224Z,100.00
2022-10-22T21:42:44.788Z,100.00
2022-10-22T21:45:47.220Z,100.00
2022-10-22T21:48:54.121Z,100.00
2022-10-22T21:51:56.358Z,100.00
2022-10-22T21:55:05.445Z,100.00
2022-10-22T21:58:08.661Z,100.00
2022-10-22T22:01:11.695Z,100.00
2022-10-22T22:04:14.277Z,100.00
2022-10-22T22:07:16.469Z,100.00
2022-10-22T22:10:18.939Z,100.00
2022-10-22T22:13:24.932Z,100.00
2022-10-22T22:16:29.295Z,100.00
2022-10-22T22:19:31.603Z,100.00
2022-10-22T22:22:34.094Z,100.00
2022-10-22T22:25:36.257Z,100.00
2022-10-22T22:28:38.866Z,100.00
2022-10-22T22:31:41.124Z,100.00
2022-10-22T22:34:46.423Z,100.00
2022-10-22T22:37:48.573Z,100.00
2022-10-22T22:40:51.055Z,100.00
2022-10-22T22:46:55.853Z,100.00
2022-10-22T22:49:58.419Z,100.00
2022-10-22T22:53:00.973Z,100.00
2022-10-22T22:56:03.147Z,100.00
2022-10-22T22:59:06.221Z,100.00
2022-10-22T23:02:08.548Z,100.00
2022-10-22T23:05:11.076Z,100.00
2022-10-22T23:08:13.253Z,100.00
2022-10-22T23:11:16.432Z,100.00
2022-10-22T23:14:19.113Z,100.00
2022-10-22T23:17:21.682Z,100.00
2022-10-22T23:20:23.871Z,100.00
2022-10-22T23:23:26.423Z,100.00
2022-10-22T23:26:30.083Z,100.00
2022-10-22T23:29:34.082Z,100.00
2022-10-22T23:32:37.197Z,100.00
2022-10-22T23:35:40.901Z,100.00
2022-10-22T23:38:43.417Z,100.00
2022-10-22T23:41:46.108Z,100.00
2022-10-22T23:44:48.428Z,100.00
2022-10-22T23:47:51.043Z,100.00
2022-10-22T23:53:57.085Z,100.00
2022-10-22T23:56:59.363Z,100.00
